Latest Weather Observations for Onslow Airport

IDW60801

Issued at 7:32 pm WST Saturday 28 May 2016 (issued every 30 minutes, with the page automatically refreshed every 10 minutes)

About weather observations | Map of weather stations | Latest weather observations for WA | Other Formats
Station Details ID: 005017 Name: ONSLOW AIRPORT Lat: -21.67 Lon: 115.11 Height: 10.5 m
Data from the previous 72 hours. | See also: Recent months at Onslow Airport
Date/Time
WST
Temp
°C
App
Temp
°C
Dew
Point
Rel
Hum
%
Delta-T
°C
Wind Press
QNH
hPa
Press
MSL
hPa
Rain
since 9 am
mm
Dir
 
Spd
km/h
Gust
km/h
Spd
kts
Gust
kts
28/07:30pm 23.7 19.7 6.5 33 8.8 SW 17 20 9 11 1014.3 1014.3 0.0
28/07:00pm 24.9 21.1 7.5 33 9.2 SW 17 20 9 11 1014.0 1014.0 0.0
28/06:30pm 25.1 21.7 7.7 33 9.2 SW 15 17 8 9 1013.8 1013.8 0.0
28/06:00pm 26.4 23.2 8.4 32 9.7 SSW 15 17 8 9 1013.2 1013.2 0.0
28/05:30pm 28.1 23.9 7.4 27 11.1 SSW 19 24 10 13 1012.8 1012.8 0.0
28/05:00pm 29.3 24.7 6.7 24 12.1 SSW 20 28 11 15 1012.6 1012.6 0.0
28/04:30pm 30.1 25.7 6.7 23 12.5 SSW 19 22 10 12 1012.5 1012.5 0.0
28/04:00pm 30.3 25.1 5.6 21 13.0 SSW 22 28 12 15 1012.3 1012.3 0.0
28/03:30pm 30.8 26.1 5.3 20 13.4 SSW 19 26 10 14 1012.5 1012.5 0.0
28/03:00pm 30.8 25.9 5.3 20 13.4 SSW 20 30 11 16 1012.5 1012.5 0.0
28/02:30pm 30.8 25.6 5.3 20 13.4 S 22 30 12 16 1012.7 1012.7 0.0
28/02:00pm 31.1 26.3 5.5 20 13.5 SSW 20 26 11 14 1012.9 1012.9 0.0
28/01:30pm 30.8 26.1 6.0 21 13.2 S 20 28 11 15 1013.3 1013.3 0.0
28/01:00pm 30.6 25.2 6.5 22 12.9 S 24 30 13 16 1013.6 1013.6 0.0
28/12:30pm 30.6 25.4 7.1 23 12.7 S 24 32 13 17 1014.1 1014.1 0.0
28/12:00pm 29.9 24.8 7.8 25 12.0 S 24 30 13 16 1014.6 1014.6 0.0
28/11:30am 29.7 24.7 8.2 26 11.8 S 24 32 13 17 1015.0 1015.0 0.0
28/11:00am 29.1 23.7 8.2 27 11.4 S 26 33 14 18 1015.6 1015.6 0.0
28/10:30am 28.3 22.9 9.6 31 10.4 S 28 33 15 18 1015.9 1015.9 0.0
28/10:00am 27.3 22.1 8.7 31 10.1 S 26 32 14 17 1016.1 1016.1 0.0
28/09:30am 26.4 21.7 9.3 34 9.4 S 24 33 13 18 1016.5 1016.5 0.0
28/09:00am 25.0 19.4 8.9 36 8.7 S 28 32 15 17 1016.4 1016.4 0.0
28/08:30am 23.3 18.6 9.3 41 7.6 S 24 32 13 17 1016.2 1016.2 0.0
28/08:00am 21.6 17.9 10.1 48 6.2 SSW 20 26 11 14 1016.0 1016.0 0.0
28/07:30am 20.4 16.8 10.5 53 5.4 SSW 20 26 11 14 1016.0 1016.0 0.0
28/07:00am 20.1 16.7 10.5 54 5.2 SSW 19 22 10 12 1015.8 1015.8 0.0
28/06:30am 20.0 16.6 10.7 55 5.1 SSW 19 24 10 13 1015.6 1015.6 0.0
28/06:00am 20.0 16.6 10.7 55 5.1 SSW 19 26 10 14 1015.5 1015.5 0.0
28/05:30am 20.1 17.2 11.1 56 4.9 SSW 17 24 9 13 1015.4 1015.4 0.0
28/05:00am 20.4 16.6 11.1 55 5.1 SSW 22 28 12 15 1015.3 1015.3 0.0
28/04:30am 20.5 17.1 11.4 56 5.0 SSW 20 26 11 14 1015.3 1015.3 0.0
28/04:00am 20.5 17.3 12.0 58 4.7 SSW 20 26 11 14 1015.4 1015.4 0.0
28/03:30am 20.4 17.0 12.4 60 4.5 SSW 22 28 12 15 1015.4 1015.4 0.0
28/03:00am 20.7 17.5 13.2 62 4.3 SSW 22 28 12 15 1015.6 1015.6 0.0
28/02:30am 20.8 18.2 13.7 64 4.1 SSW 20 26 11 14 1015.8 1015.8 0.0
28/02:00am 20.9 18.7 14.8 68 3.6 SW 20 24 11 13 1015.9 1015.9 0.0
28/01:30am 21.2 19.3 15.1 68 3.6 SW 19 22 10 12 1016.0 1016.0 0.0
28/01:00am 21.2 19.3 15.3 69 3.5 SW 19 24 10 13 1016.2 1016.2 0.0
28/12:30am 21.1 19.6 15.4 70 3.4 SW 17 20 9 11 1016.2 1016.2 0.0
28/12:00am 20.5 19.8 15.3 72 3.1 WSW 13 17 7 9 1016.4 1016.4 0.0
 
Date/Time
WST
Temp
°C
App
Temp
°C
Dew
Point
Rel
Hum
%
Delta-T
°C
Wind Press
QNH
hPa
Press
MSL
hPa
Rain
since 9 am
mm
Dir
 
Spd
km/h
Gust
km/h
Spd
kts
Gust
kts
27/11:30pm 20.6 19.3 14.9 70 3.3 W 15 17 8 9 1016.3 1016.3 0.0
27/11:00pm 21.4 19.7 14.6 65 4.0 WSW 17 20 9 11 1016.4 1016.4 0.0
27/10:30pm 22.5 20.5 14.9 62 4.5 WSW 19 24 10 13 1016.6 1016.6 0.0
27/10:00pm 22.1 21.9 16.8 72 3.2 WSW 13 15 7 8 1016.4 1016.4 0.0
27/09:30pm 22.8 22.2 17.5 72 3.3 W 17 20 9 11 1016.4 1016.4 0.0
27/09:00pm 22.9 23.3 19.1 79 2.4 W 15 17 8 9 1016.5 1016.5 0.0
27/08:30pm 22.6 22.7 18.4 77 2.6 W 15 17 8 9 1016.3 1016.3 0.0
27/08:00pm 23.0 23.6 18.7 77 2.7 W 13 15 7 8 1016.1 1016.1 0.0
27/07:30pm 23.3 24.6 19.2 78 2.6 W 11 13 6 7 1015.8 1015.8 0.0
27/07:00pm 23.7 24.8 19.6 78 2.6 W 13 15 7 8 1015.6 1015.6 0.0
27/06:30pm 24.1 24.6 19.2 74 3.1 W 15 17 8 9 1015.4 1015.4 0.0
27/06:00pm 24.6 24.7 19.2 72 3.5 W 17 20 9 11 1015.2 1015.2 0.0
27/05:30pm 25.8 26.2 20.6 73 3.4 WNW 19 24 10 13 1014.6 1014.6 0.0
27/05:00pm 26.7 26.7 20.1 67 4.3 NW 20 26 11 14 1014.3 1014.3 0.0
27/04:30pm 27.4 27.3 20.0 64 4.8 NW 20 24 11 13 1014.1 1014.1 0.0
27/04:00pm 28.0 27.7 19.5 60 5.5 NW 20 30 11 16 1014.2 1014.2 0.0
27/03:30pm 28.1 26.8 19.1 58 5.8 NNW 24 32 13 17 1013.9 1013.9 0.0
27/03:00pm 28.8 27.3 18.6 54 6.6 NNW 24 32 13 17 1013.9 1013.9 0.0
27/02:30pm 29.5 27.4 18.0 50 7.3 N 26 30 14 16 1013.8 1013.8 0.0
27/02:00pm 29.7 27.5 16.8 45 8.1 N 24 32 13 17 1013.8 1013.8 0.0
27/01:30pm 29.8 27.3 16.2 43 8.5 N 24 32 13 17 1014.2 1014.2 0.0
27/01:00pm 30.2 27.8 15.5 41 9.1 NNE 22 30 12 16 1014.6 1014.6 0.0
27/12:30pm 30.4 27.6 15.3 40 9.3 NNE 24 30 13 16 1014.9 1014.9 0.0
27/12:00pm 30.7 28.1 14.8 38 9.7 NNE 22 30 12 16 1015.3 1015.3 0.0
27/11:30am 31.1 29.0 12.5 32 11.0 ENE 15 20 8 11 1015.8 1015.8 0.0
27/11:00am 30.4 28.5 11.9 32 10.8 ENE 13 17 7 9 1016.3 1016.3 0.0
27/10:30am 29.8 26.9 10.9 31 10.8 E 17 20 9 11 1016.6 1016.6 0.0
27/10:00am 28.2 25.0 9.9 32 10.2 SE 17 20 9 11 1016.7 1016.7 0.0
27/09:30am 27.2 24.0 10.0 34 9.6 SE 17 20 9 11 1016.9 1016.9 0.0
27/09:00am 26.0 22.2 9.8 36 8.9 SE 20 24 11 13 1016.9 1016.9 0.0
27/08:30am 23.7 20.1 9.7 41 7.6 SE 19 24 10 13 1016.7 1016.7 0.0
27/08:00am 22.1 19.3 9.9 46 6.6 SE 15 20 8 11 1016.3 1016.3 0.0
27/07:30am 20.4 16.7 9.3 49 5.9 SSE 19 24 10 13 1016.1 1016.1 0.0
27/07:00am 19.9 15.7 9.8 52 5.4 SSE 22 28 12 15 1016.1 1016.1 0.0
27/06:30am 19.7 16.0 9.6 52 5.4 S 19 26 10 14 1016.0 1016.0 0.0
27/06:00am 19.0 15.2 9.2 53 5.1 S 19 22 10 12 1015.9 1015.9 0.0
27/05:30am 19.5 15.8 9.4 52 5.3 S 19 20 10 11 1015.7 1015.7 0.0
27/05:00am 19.7 16.4 9.6 52 5.4 SSW 17 22 9 12 1015.8 1015.8 0.0
27/04:30am 19.7 16.4 9.6 52 5.4 SSW 17 20 9 11 1015.6 1015.6 0.0
27/04:00am 19.8 16.8 9.4 51 5.5 SSW 15 20 8 11 1015.6 1015.6 0.0
27/03:30am 20.2 16.9 9.7 51 5.6 SSW 17 20 9 11 1015.7 1015.7 0.0
27/03:00am 20.8 17.1 9.4 48 6.1 SSW 19 22 10 12 1015.5 1015.5 0.0
27/02:30am 21.1 17.4 9.4 47 6.2 SSW 19 24 10 13 1015.6 1015.6 0.0
27/02:00am 20.9 17.9 9.2 47 6.2 S 15 19 8 10 1015.7 1015.7 0.0
27/01:30am 21.3 18.0 9.5 47 6.3 S 17 20 9 11 1015.9 1015.9 0.0
27/01:00am 22.0 18.0 9.2 44 6.8 S 20 24 11 13 1016.2 1016.2 0.0
27/12:30am 22.2 17.8 9.0 43 7.0 S 22 26 12 14 1016.5 1016.5 0.0
27/12:00am 22.3 18.3 9.1 43 7.0 S 20 24 11 13 1016.5 1016.5 0.0
 
Date/Time
WST
Temp
°C
App
Temp
°C
Dew
Point
Rel
Hum
%
Delta-T
°C
Wind Press
QNH
hPa
Press
MSL
hPa
Rain
since 9 am
mm
Dir
 
Spd
km/h
Gust
km/h
Spd
kts
Gust
kts
26/11:30pm 22.5 18.7 9.0 42 7.2 S 19 26 10 14 1016.5 1016.5 0.0
26/11:00pm 22.7 18.8 8.8 41 7.4 S 19 22 10 12 1016.5 1016.5 0.0
26/10:30pm 23.2 19.4 8.9 40 7.7 SSW 19 28 10 15 1016.6 1016.6 0.0
26/10:00pm 23.6 19.5 8.5 38 8.0 SSW 20 26 11 14 1016.5 1016.5 0.0
26/09:30pm 24.1 20.4 9.3 39 8.0 SSW 19 22 10 12 1016.5 1016.5 0.0
26/09:00pm 24.6 20.7 9.3 38 8.3 SSW 20 24 11 13 1016.4 1016.4 0.0
26/08:30pm 25.0 21.5 10.1 39 8.2 SSW 19 24 10 13 1016.4 1016.4 0.0
26/08:00pm 25.3 22.9 11.5 42 7.8 SSW 15 20 8 11 1016.2 1016.2 0.0
26/07:30pm 25.5 23.5 12.7 45 7.4 SSW 15 17 8 9 1015.9 1015.9 0.0
26/07:00pm 25.7 24.3 13.5 46 7.2 SSW 13 15 7 8 1015.5 1015.5 0.0
26/06:30pm 26.8 25.6 13.9 45 7.7 SSW 13 15 7 8 1015.1 1015.1 0.0
26/06:00pm 27.6 26.9 14.3 44 8.0 SSW 11 13 6 7 1014.8 1014.8 0.0
26/05:30pm 29.0 27.0 12.8 36 9.5 SSW 15 20 8 11 1014.5 1014.5 0.0
26/05:00pm 29.7 27.7 12.6 35 10.1 S 15 17 8 9 1014.2 1014.2 0.0
26/04:30pm 30.4 28.6 13.2 35 10.2 SSE 15 20 8 11 1014.2 1014.2 0.0
26/04:00pm 30.1 28.3 13.4 36 10.0 S 15 22 8 12 1014.1 1014.1 0.0
26/03:30pm 30.0 28.3 13.7 37 9.8 S 15 20 8 11 1014.2 1014.2 0.0
26/03:00pm 30.2 28.2 13.9 37 9.8 S 17 24 9 13 1014.5 1014.5 0.0
26/02:30pm 30.2 27.4 14.3 38 9.6 S 22 32 12 17 1014.7 1014.7 0.0
26/02:00pm 29.7 26.9 14.3 39 9.3 S 22 32 12 17 1015.0 1015.0 0.0
26/01:30pm 29.5 26.9 14.9 41 8.9 S 22 28 12 15 1015.3 1015.3 0.0
26/01:00pm 29.6 26.7 15.0 41 8.9 S 24 33 13 18 1015.6 1015.6 0.0
26/12:30pm 29.2 26.0 15.3 42 8.5 S 26 33 14 18 1016.0 1016.0 0.0
26/12:00pm 28.3 25.2 15.6 46 7.8 S 26 32 14 17 1016.4 1016.4 0.0
26/11:30am 28.0 24.5 15.6 46 7.6 S 28 35 15 19 1016.9 1016.9 0.0
26/11:00am 27.3 24.5 16.3 51 6.8 S 26 32 14 17 1017.0 1017.0 0.0
26/10:30am 26.6 23.4 16.2 52 6.4 S 28 35 15 19 1017.4 1017.4 0.0
26/10:00am 26.3 23.8 17.1 57 5.7 SSE 26 30 14 16 1017.5 1017.5 0.0
26/09:30am 25.1 21.7 16.8 60 5.1 S 30 37 16 20 1017.6 1017.6 0.0
26/09:00am 24.6 20.8 17.1 63 4.6 S 33 41 18 22 1017.4 1017.4 0.0
26/08:30am 24.1 20.7 17.6 67 4.0 S 32 39 17 21 1017.1 1017.1 0.0
26/08:00am 23.3 21.3 18.4 74 3.1 S 26 33 14 18 1016.7 1016.7 0.0
26/07:30am 22.6 21.8 18.4 77 2.6 SSW 20 28 11 15 1016.3 1016.3 0.0
26/07:00am 22.3 22.1 18.5 79 2.4 SSW 17 24 9 13 1015.9 1015.9 0.0
26/06:30am 22.2 22.0 18.6 80 2.3 SSW 17 22 9 12 1015.6 1015.6 0.0
26/06:00am 22.2 23.0 19.0 82 2.0 SSW 13 17 7 9 1015.3 1015.3 0.0
26/05:30am 22.7 23.3 19.5 82 2.0 SSW 15 19 8 10 1015.2 1015.2 0.0
26/05:00am 22.3 22.8 20.0 87 1.5 SSW 17 20 9 11 1015.0 1015.0 0.0
26/04:30am 22.2 23.5 20.1 88 1.4 SW 13 15 7 8 1014.7 1014.7 0.0
26/04:00am 22.4 23.4 20.3 88 1.4 SW 15 19 8 10 1014.5 1014.5 0.0
26/03:30am 22.5 23.5 20.2 87 1.5 SW 15 17 8 9 1014.4 1014.4 0.0
26/03:00am 22.6 23.4 20.7 89 1.2 SW 17 20 9 11 1014.4 1014.4 0.0
26/02:30am 21.7 22.9 20.0 90 1.1 SW 13 15 7 8 1014.7 1014.7 0.0
26/02:00am 21.7 23.4 20.2 91 1.0 WSW 11 13 6 7 1014.9 1014.9 0.0
26/01:30am 21.9 23.6 20.2 90 1.1 WSW 11 13 6 7 1015.0 1015.0 0.0
26/01:00am 22.0 23.8 20.3 90 1.1 WSW 11 13 6 7 1015.1 1015.1 0.0
26/12:30am 22.2 23.6 20.3 89 1.2 WSW 13 15 7 8 1015.2 1015.2 0.0
26/12:00am 22.6 24.8 20.5 88 1.4 WSW 9 13 5 7 1015.0 1015.0 0.0
 
Date/Time
WST
Temp
°C
App
Temp
°C
Dew
Point
Rel
Hum
%
Delta-T
°C
Wind Press
QNH
hPa
Press
MSL
hPa
Rain
since 9 am
mm
Dir
 
Spd
km/h
Gust
km/h
Spd
kts
Gust
kts
25/11:30pm 23.0 24.5 20.5 86 1.6 WSW 13 15 7 8 1015.2 1015.2 0.0
25/11:00pm 23.1 24.5 20.4 85 1.7 W 13 17 7 9 1015.1 1015.1 0.0
25/10:30pm 23.3 24.7 20.4 84 1.9 W 13 15 7 8 1015.0 1015.0 0.0
25/10:00pm 23.4 25.3 20.5 84 1.9 W 11 15 6 8 1015.0 1015.0 0.0
25/09:30pm 23.7 25.2 20.6 83 2.0 W 13 17 7 9 1014.8 1014.8 0.0
25/09:00pm 23.7 24.7 20.2 81 2.3 W 15 17 8 9 1014.6 1014.6 0.0
25/08:30pm 23.8 24.7 20.1 80 2.4 W 15 17 8 9 1014.6 1014.6 0.0
25/08:00pm 23.9 24.3 19.8 78 2.6 WNW 17 22 9 12 1014.4 1014.4 0.0

Other Formats:

Comma delimited format used in spreadsheet applications
http://www.bom.gov.au/fwo/IDW60801/IDW60801.95305.axf

JavaScript Object Notation format (JSON) in row-major order
http://www.bom.gov.au/fwo/IDW60801/IDW60801.95305.json